De Soto, Georgia
Current Conditions -  °F | °C
As of 1:55 PM on Monday 20 Oct 2014 (Local Time) from KACJ Reporting Station
Scattered Clouds Scattered Clouds  
Wind Chill: 23°   Ceiling: Unl
Heat Index: 23°   Visibility: 10mi
Dew Point: 13°   Wind: 3mph
Humidity: 53%   Direction: 200°SSW
Pressure: 30.06"   Gusts: NA
Location:  31.95°N, 84.06°W
Report Text: KACJ 201755Z AUTO 20003KT 10SM SCT041 23/13 A3006 RMK AO2
Loading
Personal Weather Stations






























Interactive Weather Map
Tropical Storm Tracking
New forecast layout! Learn more

10-Day Weather Forecast

Advertisements
Track Severe Weather on mobile